Terminal Aerodrome Forecast
Issued by NWS

Home | Current Version | Previous Version | Text Only | Print | Product List | Glossary On
Versions: 1 2 3 4 5 6 7 8 9 10 11 12 13 14 15 16 17 18 19 20 21 22 23 24 25
000
FTUS43 KPAH 190721 AAB
TAFCGI
TAF AMD
KCGI 190721Z 1907/2006 00000KT 1/4SM FG VV001
     FM191600 19005KT P6SM SCT015
     FM191800 17005KT P6SM SKC=

USA.gov is the U.S. government's official web portal to all federal, state and local government web resources and services.